Time;durP1;ratioP1;P1;durP2;ratioP2;P2;SDS_P1;SDS_P2;PMS_P1;PMS_P2;Temp;Humidity;BMP_temperature;BMP_pressure;BME280_temperature;BME280_humidity;BME280_pressure;Samples;Min_cycle;Max_cycle;Signal;HPM_P1;HPM_P2
2022/11/03 00:00:30;;;;;;;46.15;8.23;;;;;;;10.63;82.84;101354.00;5073904;28;20048;-47
2022/11/03 00:02:55;;;;;;;38.08;6.78;;;;;;;10.61;82.80;101347.88;5074518;28;20029;-47
2022/11/03 00:08:24;;;;;;;41.00;6.43;;;;;;;10.66;81.82;101340.34;5012264;28;20045;-45
2022/11/03 00:10:50;;;;;;;42.80;7.65;;;;;;;10.65;82.48;101336.00;5012786;28;20033;-45
2022/11/03 00:13:15;;;;;;;40.95;7.65;;;;;;;10.66;82.29;101332.59;5039661;28;20488;-47
2022/11/03 00:15:47;;;;;;;40.67;7.72;;;;;;;10.67;82.16;101335.22;5074601;28;20086;-47
2022/11/03 00:18:12;;;;;;;33.97;6.90;;;;;;;10.65;82.24;101339.47;5073713;28;20426;-44
2022/11/03 00:20:38;;;;;;;45.90;6.65;;;;;;;10.67;82.18;101327.50;5073597;28;20039;-47
2022/11/03 00:23:03;;;;;;;51.58;7.72;;;;;;;10.68;82.06;101329.25;5074019;28;20021;-48
2022/11/03 00:25:28;;;;;;;37.53;6.63;;;;;;;10.67;82.08;101327.50;5074193;28;20040;-48
2022/11/03 00:27:54;;;;;;;52.03;7.50;;;;;;;10.65;82.19;101323.13;5073097;28;20392;-48
2022/11/03 00:30:20;;;;;;;37.67;6.90;;;;;;;10.67;82.22;101318.91;5073973;28;20029;-46
2022/11/03 00:32:45;;;;;;;39.65;6.85;;;;;;;10.71;81.91;101319.06;5074160;28;20033;-48
2022/11/03 00:35:10;;;;;;;43.47;7.25;;;;;;;10.68;82.00;101307.78;5073190;28;20552;-47
2022/11/03 00:37:35;;;;;;;42.38;7.03;;;;;;;10.68;82.18;101318.09;5074045;28;20041;-48
2022/11/03 00:40:01;;;;;;;41.10;7.07;;;;;;;10.70;82.14;101307.00;5073711;28;20031;-48
2022/11/03 00:42:26;;;;;;;40.33;6.32;;;;;;;10.73;81.84;101305.34;5073054;28;20036;-45
2022/11/03 00:44:51;;;;;;;42.75;6.78;;;;;;;10.74;81.97;101294.22;5073582;28;20093;-47
2022/11/03 00:47:16;;;;;;;31.85;5.53;;;;;;;10.73;81.90;101298.50;5073684;28;20365;-47
2022/11/03 00:49:42;;;;;;;45.88;6.70;;;;;;;10.76;81.59;101290.00;5072863;28;20032;-48
2022/11/03 00:52:07;;;;;;;32.13;6.47;;;;;;;10.73;81.87;101285.63;5073449;28;20021;-47
2022/11/03 00:54:32;;;;;;;31.88;6.05;;;;;;;10.78;81.71;101283.19;5073600;28;20029;-47
2022/11/03 00:56:57;;;;;;;37.67;6.63;;;;;;;10.76;81.83;101275.41;5072444;28;20032;-48
2022/11/03 00:59:23;;;;;;;40.72;6.53;;;;;;;10.72;81.91;101268.38;5073670;28;20476;-47
2022/11/03 01:01:48;;;;;;;34.17;5.80;;;;;;;10.78;81.77;101268.63;5073380;28;20031;-47
2022/11/03 01:07:02;;;;;;;33.20;5.88;;;;;;;10.81;81.71;101266.13;5073414;28;20537;-47
2022/11/03 01:09:30;;;;;;;38.28;6.32;;;;;;;10.84;81.63;101252.47;5072643;28;20040;-46
2022/11/03 01:12:03;;;;;;;;;;;;;;;10.89;81.48;101255.22;5073554;28;20017;-48
2022/11/03 01:14:43;;;;;;;40.25;6.32;;;;;;;10.89;81.26;101250.94;5073378;28;19915;-48
2022/11/03 01:17:14;;;;;;;31.98;5.80;;;;;;;10.85;81.58;101260.25;5072122;28;20490;-47
2022/11/03 01:19:40;;;;;;;38.88;6.32;;;;;;;10.89;81.64;101252.66;5072521;28;20047;-47
2022/11/03 01:22:06;;;;;;;37.42;6.22;;;;;;;10.97;81.25;101248.63;5072796;28;20032;-48
2022/11/03 01:24:32;;;;;;;41.38;6.43;;;;;;;10.97;81.17;101251.19;5072481;28;20038;-46
2022/11/03 01:26:58;;;;;;;33.47;6.15;;;;;;;11.00;80.82;101238.41;5072858;28;20066;-48
2022/11/03 01:29:23;;;;;;;47.92;7.18;;;;;;;11.00;81.17;101238.41;5073045;28;20032;-45
2022/11/03 01:31:48;;;;;;;42.75;7.05;;;;;;;11.01;81.18;101232.41;5072163;28;20021;-47
2022/11/03 01:34:16;;;;;;;43.20;7.15;;;;;;;11.03;81.19;101228.19;5072679;28;20024;-48
2022/11/03 01:36:42;;;;;;;40.67;7.20;;;;;;;11.07;80.94;101219.72;5072997;28;20111;-46
2022/11/03 01:39:12;;;;;;;38.20;6.20;;;;;;;11.10;80.97;101230.13;5072078;28;20032;-48
2022/11/03 01:41:38;;;;;;;33.83;6.68;;;;;;;11.14;80.69;101221.69;5073032;28;20040;-47
2022/11/03 01:44:32;;;;;;;38.03;6.32;;;;;;;11.13;80.86;101222.53;5072708;28;20024;-47
2022/11/03 01:47:12;;;;;;;36.20;7.00;;;;;;;11.13;80.88;101212.19;5072417;28;20056;-46
2022/11/03 01:49:40;;;;;;;30.65;5.85;;;;;;;11.16;80.59;101204.56;5072982;28;20036;-46
2022/11/03 01:52:12;;;;;;;38.72;6.50;;;;;;;11.22;80.67;101196.16;5071819;28;20365;-48
2022/11/03 01:54:41;;;;;;;37.45;6.50;;;;;;;11.28;80.39;101200.63;5072899;28;20028;-47
2022/11/03 01:57:14;;;;;;;38.63;6.45;;;;;;;11.30;80.15;101189.53;5072405;28;20028;-46
2022/11/03 01:59:40;;;;;;;32.78;5.85;;;;;;;11.30;80.63;101194.69;5071880;28;20090;-47
2022/11/03 02:02:06;;;;;;;32.88;6.57;;;;;;;11.33;80.70;101193.91;5072643;28;20035;-47
2022/11/03 02:04:33;;;;;;;47.55;7.13;;;;;;;11.26;81.09;101200.59;5072680;28;20033;-47
2022/11/03 02:07:13;;;;;;;44.87;6.43;;;;;;;11.30;80.87;101191.25;5071614;28;20525;-47
2022/11/03 02:09:38;;;;;;;45.88;7.38;;;;;;;11.23;81.25;101186.69;5072620;28;20040;-45
2022/11/03 02:12:07;;;;;;;38.15;6.22;;;;;;;11.22;81.46;101187.53;5072264;28;20544;-48
2022/11/03 02:14:36;;;;;;;33.20;6.13;;;;;;;11.22;81.50;101182.38;5071771;28;20411;-47
2022/11/03 02:17:05;;;;;;;37.35;6.68;;;;;;;11.20;81.71;101175.44;5072475;28;20099;-47
2022/11/03 02:19:35;;;;;;;32.88;6.47;;;;;;;11.23;81.67;101176.38;5071702;28;20071;-47
2022/11/03 02:22:22;;;;;;;38.97;6.88;;;;;;;11.21;81.75;101171.19;5072433;28;20456;-47
2022/11/03 02:24:55;;;;;;;41.30;7.82;;;;;;;11.20;81.81;101170.28;5072692;28;20033;-47
2022/11/03 02:27:20;;;;;;;34.08;6.93;;;;;;;11.21;81.75;101163.44;5071804;28;20033;-48
2022/11/03 02:29:46;;;;;;;32.67;6.57;;;;;;;11.21;81.77;101160.84;5072674;28;20423;-48
2022/11/03 02:32:25;;;;;;;34.25;5.75;;;;;;;11.23;81.58;101158.31;5076126;28;20062;-47
2022/11/03 02:35:04;;;;;;;32.45;5.57;;;;;;;11.23;81.47;101146.28;5075617;28;20020;-46
2022/11/03 02:37:35;;;;;;;38.67;6.93;;;;;;;11.25;81.46;101154.97;5076565;28;20025;-48
2022/11/03 02:40:07;;;;;;;38.60;6.30;;;;;;;11.23;81.62;101142.84;5075864;28;20027;-47
2022/11/03 02:42:36;;;;;;;37.28;6.40;;;;;;;11.22;81.72;101138.50;5075554;28;20074;-47
2022/11/03 02:45:07;;;;;;;38.25;6.43;;;;;;;11.23;81.58;101132.53;5075690;28;20110;-47
2022/11/03 02:47:35;;;;;;;37.78;6.45;;;;;;;11.20;81.83;101128.13;5075683;28;20047;-46
2022/11/03 02:50:06;;;;;;;41.88;6.55;;;;;;;11.20;82.14;101134.16;5075779;28;20021;-48
2022/11/03 02:52:46;;;;;;;33.90;6.85;;;;;;;11.26;82.16;101124.88;5076051;28;20086;-48
2022/11/03 02:55:36;;;;;;;35.13;6.88;;;;;;;11.25;82.25;101123.13;5074991;28;20035;-47
2022/11/03 02:58:14;;;;;;;47.65;7.35;;;;;;;11.22;82.49;101117.88;5075519;28;20397;-48
2022/11/03 03:00:49;;;;;;;38.63;6.88;;;;;;;11.19;82.52;101106.63;5075830;28;20085;-46
2022/11/03 03:03:39;;;;;;;44.03;7.30;;;;;;;11.10;83.12;101111.47;5074829;28;20024;-47
2022/11/03 03:06:08;;;;;;;31.45;5.85;;;;;;;11.11;83.02;101108.09;5075397;28;20078;-46
2022/11/03 03:08:39;;;;;;;39.20;6.25;;;;;;;11.11;83.30;101102.06;5075688;28;20074;-44
2022/11/03 03:11:05;;;;;;;37.38;6.60;;;;;;;11.12;83.17;101094.38;5075455;28;20029;-48
2022/11/03 03:13:31;;;;;;;34.28;6.93;;;;;;;11.12;83.19;101089.19;5075659;28;20107;-47
2022/11/03 03:16:32;;;;;;;35.90;6.97;;;;;;;11.14;83.19;101090.16;5074502;28;20123;-47
2022/11/03 03:19:07;;;;;;;42.03;7.05;;;;;;;11.14;83.49;101077.25;5057793;28;20044;-47
2022/11/03 03:21:40;;;;;;;33.00;6.40;;;;;;;11.12;83.42;101089.19;5075497;28;20036;-46
2022/11/03 03:24:12;;;;;;;29.35;6.57;;;;;;;11.12;83.73;101084.03;5074246;28;20028;-47
2022/11/03 03:26:46;;;;;;;32.30;5.93;;;;;;;11.16;83.55;101077.28;5075272;28;20028;-48
2022/11/03 03:29:14;;;;;;;32.95;5.97;;;;;;;11.19;83.75;101064.47;5074947;28;20044;-47
2022/11/03 03:31:44;;;;;;;38.65;6.78;;;;;;;11.16;83.91;101070.41;5074662;28;20082;-47
2022/11/03 03:34:11;;;;;;;42.08;6.88;;;;;;;11.14;84.00;101060.88;5075009;28;20023;-46
2022/11/03 03:36:40;;;;;;;39.22;7.57;;;;;;;11.13;84.27;101075.47;5075163;28;20406;-43
2022/11/03 03:39:09;;;;;;;30.80;6.30;;;;;;;11.13;84.25;101065.16;5074158;28;20032;-46
2022/11/03 03:41:37;;;;;;;44.58;6.95;;;;;;;11.15;84.26;101065.22;5073956;28;20434;-47
2022/11/03 03:44:05;;;;;;;35.22;6.07;;;;;;;11.16;84.23;101059.22;5074154;28;20052;-46
2022/11/03 03:46:35;;;;;;;32.80;6.65;;;;;;;11.15;84.31;101060.91;5074722;28;20047;-47
2022/11/03 03:49:01;;;;;;;44.22;7.28;;;;;;;11.14;84.42;101051.44;5074893;28;20040;-47
2022/11/03 03:51:28;;;;;;;34.63;6.25;;;;;;;11.12;84.83;101052.22;5074115;28;20024;-45
2022/11/03 03:53:54;;;;;;;30.77;6.18;;;;;;;11.16;84.67;101038.59;5074381;28;20035;-48
2022/11/03 03:56:27;;;;;;;40.05;7.10;;;;;;;11.18;84.55;101036.91;5075013;28;20021;-48
2022/11/03 03:58:52;;;;;;;36.00;6.95;;;;;;;11.22;84.71;101033.63;5073864;28;20107;-45
2022/11/03 04:01:18;;;;;;;32.05;5.95;;;;;;;11.18;84.44;101024.91;5074648;28;20594;-47
2022/11/03 04:03:43;;;;;;;44.38;6.72;;;;;;;11.19;84.44;101018.94;5074637;28;20543;-48
2022/11/03 04:06:08;;;;;;;44.72;7.00;;;;;;;11.20;84.96;101030.97;5073588;28;20036;-47
2022/11/03 04:08:34;;;;;;;45.25;6.60;;;;;;;11.20;84.98;101025.81;5074417;28;20025;-46
2022/11/03 04:24:39;;;;;;;30.55;6.88;;;;;;;11.16;86.15;101012.78;5074477;28;20046;-48
2022/11/03 04:27:17;;;;;;;30.95;7.03;;;;;;;11.18;86.51;101021.44;5073122;28;20021;-48
2022/11/03 04:29:42;;;;;;;;;;;;;;;11.20;85.66;101012.91;5074738;28;20021;-47
2022/11/03 04:32:17;;;;;;;33.63;6.43;;;;;;;11.15;86.51;101016.19;5073764;28;20014;-46
2022/11/03 04:34:45;;;;;;;39.72;7.03;;;;;;;11.15;86.83;101014.47;5073341;28;20032;-46
2022/11/03 04:37:14;;;;;;;32.47;6.70;;;;;;;11.15;86.86;101006.75;5073604;28;20078;-48
2022/11/03 04:39:41;;;;;;;30.00;7.35;;;;;;;11.17;87.00;100996.50;5073691;28;20580;-47
2022/11/03 04:42:20;;;;;;;36.03;6.93;;;;;;;11.16;87.06;100997.31;5072653;28;20020;-47
2022/11/03 04:44:47;;;;;;;35.08;6.75;;;;;;;11.15;87.55;101001.56;5073753;28;20020;-48
2022/11/03 04:47:15;;;;;;;37.92;6.88;;;;;;;11.15;87.71;100991.25;5072711;28;20028;-47
2022/11/03 04:49:41;;;;;;;34.25;6.07;;;;;;;11.16;87.90;100992.16;5073740;28;20060;-46
2022/11/03 04:52:20;;;;;;;36.05;6.88;;;;;;;11.18;87.92;100988.78;5073415;28;20046;-49
2022/11/03 04:54:48;;;;;;;37.45;6.60;;;;;;;11.20;88.17;100989.69;5073023;28;20029;-45
2022/11/03 04:57:15;;;;;;;38.45;6.80;;;;;;;11.23;88.18;100982.88;5073320;28;20033;-48
2022/11/03 04:59:45;;;;;;;41.20;7.17;;;;;;;11.25;88.24;100981.22;5073429;28;20025;-47
2022/11/03 05:02:15;;;;;;;34.05;6.72;;;;;;;11.25;88.34;100976.94;5072502;28;20353;-48
2022/11/03 05:04:41;;;;;;;31.52;7.68;;;;;;;11.25;88.30;100978.66;5073481;28;20456;-45
2022/11/03 05:07:21;;;;;;;34.85;7.32;;;;;;;11.26;88.64;100976.13;5072924;28;20107;-48
2022/11/03 05:09:47;;;;;;;27.48;7.10;;;;;;;11.24;88.82;100964.00;5072734;28;20035;-47
2022/11/03 05:12:13;;;;;;;41.05;5.85;;;;;;;11.21;88.94;100964.78;5073028;28;20020;-48
2022/11/03 05:14:38;;;;;;;28.73;6.57;;;;;;;11.21;88.86;100969.94;5073417;28;20376;-47
2022/11/03 05:17:22;;;;;;;30.25;6.65;;;;;;;11.22;89.28;100957.91;5072125;28;20487;-48
2022/11/03 05:19:49;;;;;;;34.75;6.95;;;;;;;11.20;89.46;100963.03;5073388;28;20039;-49
2022/11/03 05:22:21;;;;;;;32.58;7.03;;;;;;;11.22;89.63;100960.50;5072336;28;20025;-45
2022/11/03 05:24:46;;;;;;;32.42;7.53;;;;;;;11.19;89.78;100949.28;5073090;28;20138;-45
2022/11/03 05:27:18;;;;;;;40.80;7.95;;;;;;;11.15;90.23;100938.81;5072917;28;20872;-48
2022/11/03 05:29:44;;;;;;;42.10;7.25;;;;;;;11.16;90.26;100938.84;5072322;28;20538;-48
2022/11/03 05:32:13;;;;;;;34.88;7.45;;;;;;;11.14;90.61;100935.38;5072844;28;20100;-48
2022/11/03 05:34:45;;;;;;;33.10;6.85;;;;;;;11.17;90.94;100932.00;5072994;28;20021;-44
2022/11/03 05:37:25;;;;;;;31.05;6.50;;;;;;;11.18;91.01;100934.63;5071772;28;20033;-47
2022/11/03 05:39:54;;;;;;;45.70;8.25;;;;;;;11.18;91.13;100924.28;5073018;28;20424;-48
2022/11/03 05:42:41;;;;;;;33.80;6.60;;;;;;;11.20;91.26;100922.63;5072672;28;20095;-48
2022/11/03 05:45:25;;;;;;;41.30;6.97;;;;;;;11.20;91.20;100932.06;5071538;28;20103;-48
2022/11/03 05:47:54;;;;;;;27.55;6.32;;;;;;;11.23;91.57;100923.53;5072811;28;20035;-47
2022/11/03 05:50:26;;;;;;;37.20;7.00;;;;;;;11.20;91.73;100914.88;5072719;28;20406;-45
2022/11/03 05:53:00;;;;;;;45.22;7.13;;;;;;;11.19;91.82;100905.41;5072657;28;20020;-47
2022/11/03 05:55:29;;;;;;;37.25;7.90;;;;;;;11.27;92.08;100905.63;5072855;28;20024;-47
2022/11/03 05:58:00;;;;;;;36.53;7.13;;;;;;;11.29;91.73;100911.69;5071736;28;20021;-47
2022/11/03 06:00:36;;;;;;;42.33;7.53;;;;;;;11.28;91.75;100907.34;5072705;28;20068;-47
2022/11/03 06:03:02;;;;;;;30.60;6.43;;;;;;;11.27;91.94;100897.00;5072213;28;20063;-47
2022/11/03 06:05:27;;;;;;;37.70;7.10;;;;;;;11.25;91.96;100898.69;5075397;28;20064;-46
2022/11/03 06:07:54;;;;;;;29.40;6.45;;;;;;;11.25;92.02;100888.34;5078917;28;20024;-45
2022/11/03 06:10:26;;;;;;;40.72;7.03;;;;;;;11.23;92.19;100890.00;5079316;28;20028;-45
2022/11/03 06:13:21;;;;;;;31.33;6.32;;;;;;;11.27;91.95;100884.09;5078483;28;20033;-48
2022/11/03 06:15:50;;;;;;;36.03;7.15;;;;;;;11.27;92.22;100878.94;5079138;28;20035;-44
2022/11/03 06:18:20;;;;;;;38.97;7.25;;;;;;;11.27;92.17;100876.34;5078971;28;20070;-47
2022/11/03 06:20:57;;;;;;;46.83;7.43;;;;;;;11.26;92.09;100877.19;5078273;28;20436;-45
2022/11/03 06:23:22;;;;;;;55.47;8.90;;;;;;;11.23;92.44;100874.53;5079254;28;20029;-48
2022/11/03 06:25:49;;;;;;;36.67;7.53;;;;;;;11.23;92.60;100866.78;5078316;28;20032;-47
2022/11/03 06:28:21;;;;;;;35.58;6.78;;;;;;;11.22;92.45;100876.25;5078655;28;20017;-47
2022/11/03 06:30:47;;;;;;;38.22;7.32;;;;;;;11.21;92.67;100866.75;5078993;28;20082;-47
2022/11/03 06:33:25;;;;;;;30.23;6.18;;;;;;;11.23;92.54;100859.06;5078062;28;20036;-48
2022/11/03 06:35:54;;;;;;;30.27;6.90;;;;;;;11.23;92.71;100859.06;5078919;28;20028;-46
2022/11/03 06:38:23;;;;;;;33.70;6.65;;;;;;;11.23;92.61;100864.22;5078868;28;20020;-47
2022/11/03 06:40:51;;;;;;;32.10;7.32;;;;;;;11.22;92.76;100862.44;5077866;28;20055;-47
2022/11/03 06:43:27;;;;;;;36.15;6.65;;;;;;;11.25;92.68;100862.56;5078922;28;20039;-47
2022/11/03 06:46:11;;;;;;;35.00;6.75;;;;;;;11.28;92.51;100857.47;5078424;28;20040;-44
2022/11/03 06:48:38;;;;;;;27.38;6.78;;;;;;;11.29;92.36;100854.91;5078005;28;20047;-47
2022/11/03 06:51:20;;;;;;;41.80;7.43;;;;;;;11.30;92.19;100860.97;5078585;28;20017;-47
2022/11/03 06:53:49;;;;;;;34.53;5.75;;;;;;;11.30;92.16;100854.09;5078200;28;20067;-46
2022/11/03 06:56:17;;;;;;;37.13;6.70;;;;;;;11.32;91.95;100849.88;5078573;28;20430;-45
2022/11/03 06:58:44;;;;;;;37.95;6.90;;;;;;;11.32;91.97;100844.69;5078835;28;20031;-48
2022/11/03 07:01:20;;;;;;;38.72;6.93;;;;;;;11.34;91.77;100855.06;5077735;28;20032;-47
2022/11/03 07:03:46;;;;;;;36.40;6.55;;;;;;;11.34;91.41;100842.16;5078708;28;20098;-46
2022/11/03 07:06:20;;;;;;;32.58;6.47;;;;;;;11.35;91.59;100849.06;5078579;28;20067;-45
2022/11/03 07:08:50;;;;;;;31.73;6.97;;;;;;;11.34;91.69;100842.16;5077830;28;20376;-48
2022/11/03 07:11:18;;;;;;;34.47;7.30;;;;;;;11.36;91.43;100840.47;5078348;28;20025;-48
2022/11/03 07:13:45;;;;;;;40.42;7.70;;;;;;;11.39;91.18;100840.56;5078489;28;20360;-48
2022/11/03 07:16:34;;;;;;;36.33;6.72;;;;;;;11.42;91.08;100834.63;5076247;28;20039;-49
2022/11/03 07:19:02;;;;;;;32.58;6.35;;;;;;;11.47;90.64;100827.88;5075129;28;20464;-43
2022/11/03 07:21:44;;;;;;;37.22;6.75;;;;;;;11.50;90.26;100833.09;5075556;28;20029;-47
2022/11/03 07:24:18;;;;;;;44.25;7.30;;;;;;;11.49;90.12;100834.81;5074296;28;20033;-46
2022/11/03 07:26:43;;;;;;;43.33;7.45;;;;;;;11.52;90.07;100824.56;5075301;28;20025;-44
2022/11/03 07:29:20;;;;;;;29.48;5.85;;;;;;;11.55;89.82;100821.19;5074391;28;20853;-48
2022/11/03 07:31:46;;;;;;;27.02;7.43;;;;;;;11.57;89.48;100818.63;5075274;28;20025;-47
2022/11/03 07:34:17;;;;;;;32.95;6.35;;;;;;;11.59;89.32;100822.13;5074957;28;20522;-46
2022/11/03 07:36:44;;;;;;;43.63;7.30;;;;;;;11.60;89.24;100818.72;5074464;28;20020;-47
2022/11/03 07:39:14;;;;;;;37.30;7.20;;;;;;;11.60;89.42;100809.25;5074504;28;20024;-47
2022/11/03 07:41:40;;;;;;;36.42;7.32;;;;;;;11.59;89.41;100801.47;5075390;28;20025;-44
2022/11/03 07:44:14;;;;;;;30.33;5.97;;;;;;;11.64;88.55;100805.06;5073935;28;20031;-48
2022/11/03 07:46:42;;;;;;;38.17;6.95;;;;;;;11.65;88.75;100806.81;5074777;28;20491;-44
2022/11/03 07:49:20;;;;;;;39.17;7.15;;;;;;;11.67;88.39;100800.84;5074634;28;20411;-48
2022/11/03 07:51:46;;;;;;;37.72;7.00;;;;;;;11.70;88.17;100805.22;5074130;28;20460;-45
2022/11/03 07:54:17;;;;;;;34.00;7.13;;;;;;;11.73;87.85;100810.44;5074601;28;20035;-47
2022/11/03 07:56:49;;;;;;;36.55;5.90;;;;;;;11.72;88.21;100808.69;5074791;28;20020;-47
2022/11/03 07:59:20;;;;;;;29.85;6.57;;;;;;;11.73;87.77;100813.00;5073638;28;20360;-47
2022/11/03 08:01:48;;;;;;;33.25;6.72;;;;;;;11.78;87.28;100818.31;5074676;28;20028;-48
2022/11/03 08:04:20;;;;;;;34.97;6.53;;;;;;;11.79;87.31;100814.88;5073796;28;20021;-49
2022/11/03 08:06:47;;;;;;;33.95;6.25;;;;;;;11.83;86.89;100798.63;5074669;28;20025;-48
2022/11/03 08:09:12;;;;;;;38.33;8.23;;;;;;;11.89;86.40;100805.63;5074818;28;20581;-47
2022/11/03 08:11:37;;;;;;;30.17;5.93;;;;;;;11.93;86.20;100802.28;5073779;28;20518;-46
2022/11/03 08:14:03;;;;;;;34.80;6.55;;;;;;;11.98;85.63;100795.53;5074213;28;20104;-48
2022/11/03 08:16:28;;;;;;;34.70;6.30;;;;;;;12.00;85.71;100786.13;5074284;28;20024;-46
2022/11/03 08:18:53;;;;;;;36.78;5.70;;;;;;;12.03;85.21;100788.78;5073502;28;20130;-46
2022/11/03 08:21:18;;;;;;;37.08;6.85;;;;;;;12.04;85.46;100775.03;5074419;28;20097;-49
2022/11/03 08:23:44;;;;;;;44.05;6.53;;;;;;;12.06;84.67;100778.53;5074326;28;20021;-46
2022/11/03 08:26:09;;;;;;;30.30;6.13;;;;;;;12.07;84.96;100764.78;5073182;28;20123;-47
2022/11/03 08:28:34;;;;;;;26.08;5.50;;;;;;;12.12;84.25;100758.00;5073938;28;20033;-46
2022/11/03 08:31:03;;;;;;;35.15;6.95;;;;;;;12.12;84.45;100747.66;5074220;28;20067;-45
2022/11/03 08:33:28;;;;;;;42.47;7.15;;;;;;;12.14;83.96;100738.22;5073492;28;20032;-48
2022/11/03 08:35:53;;;;;;;33.20;5.93;;;;;;;12.17;84.30;100740.88;5073745;28;20067;-47
2022/11/03 08:38:19;;;;;;;37.90;6.95;;;;;;;12.19;83.86;100741.78;5074014;28;20024;-47
2022/11/03 08:40:44;;;;;;;40.03;5.90;;;;;;;12.23;83.60;100728.94;5073030;28;20032;-47
2022/11/03 08:43:09;;;;;;;29.92;6.60;;;;;;;12.27;83.49;100717.81;5073580;28;20074;-48
2022/11/03 08:45:35;;;;;;;35.63;6.15;;;;;;;12.30;83.17;100707.53;5073481;28;20439;-49
2022/11/03 08:48:00;;;;;;;33.97;6.00;;;;;;;12.33;83.01;100699.84;5072930;28;20107;-48
2022/11/03 08:50:26;;;;;;;26.48;5.93;;;;;;;12.37;82.28;100691.31;5073570;28;20056;-47
2022/11/03 08:52:51;;;;;;;27.20;6.05;;;;;;;12.41;82.89;100687.94;5073737;28;20024;-48
2022/11/03 08:55:16;;;;;;;32.00;5.97;;;;;;;12.45;83.10;100681.13;5072622;28;20025;-47
2022/11/03 08:57:42;;;;;;;26.90;6.18;;;;;;;12.51;81.83;100679.53;5073701;28;20108;-48
2022/11/03 09:00:08;;;;;;;30.02;6.18;;;;;;;12.56;81.94;100671.84;5073107;28;20410;-49
2022/11/03 09:02:34;;;;;;;35.08;6.70;;;;;;;12.62;81.99;100678.88;5072633;28;20036;-49
2022/11/03 09:04:59;;;;;;;37.67;6.13;;;;;;;12.67;81.15;100669.47;5073360;28;20028;-49
2022/11/03 09:07:24;;;;;;;31.27;6.03;;;;;;;12.78;80.47;100664.47;5072781;28;20024;-48
2022/11/03 09:09:50;;;;;;;30.85;6.10;;;;;;;12.83;79.71;100645.63;5073549;28;20065;-47
2022/11/03 09:12:15;;;;;;;30.00;6.00;;;;;;;12.90;79.83;100640.53;5073021;28;20032;-49
2022/11/03 09:14:40;;;;;;;31.48;5.53;;;;;;;12.96;79.18;100635.47;5072494;28;20150;-48
2022/11/03 09:17:06;;;;;;;29.02;5.55;;;;;;;13.02;78.79;100636.44;5072731;28;20121;-49
2022/11/03 09:19:31;;;;;;;21.30;4.47;;;;;;;13.09;78.86;100631.38;5073336;28;20066;-49
2022/11/03 09:21:58;;;;;;;30.40;6.22;;;;;;;13.12;78.06;100615.91;5072007;28;20157;-48
2022/11/03 09:24:24;;;;;;;26.67;5.55;;;;;;;13.13;78.04;100602.09;5073242;28;20032;-49
2022/11/03 09:26:49;;;;;;;37.28;5.82;;;;;;;13.16;78.12;100603.03;5072968;28;20029;-48
2022/11/03 09:29:14;;;;;;;28.98;5.80;;;;;;;13.16;78.25;100592.66;5071990;28;20103;-49
2022/11/03 09:31:40;;;;;;;33.35;6.47;;;;;;;13.16;78.26;100582.31;5072898;28;20029;-49
2022/11/03 09:34:05;;;;;;;30.63;6.25;;;;;;;13.21;79.01;100573.75;5072838;28;20056;-48
2022/11/03 09:36:30;;;;;;;31.35;6.57;;;;;;;13.15;79.13;100564.19;5072079;28;20028;-47
2022/11/03 09:38:55;;;;;;;31.23;5.88;;;;;;;13.14;78.94;100571.09;5072521;28;20029;-48
2022/11/03 09:41:21;;;;;;;29.45;6.30;;;;;;;13.08;79.14;100563.25;5072453;28;20020;-47
2022/11/03 09:43:47;;;;;;;33.65;6.82;;;;;;;13.07;78.95;100556.31;5072148;28;20024;-46
2022/11/03 09:46:14;;;;;;;32.78;6.05;;;;;;;13.06;79.24;100558.88;5072251;28;20041;-49
2022/11/03 09:48:40;;;;;;;27.13;5.80;;;;;;;13.04;79.39;100557.97;5072761;28;20548;-47
2022/11/03 09:51:09;;;;;;;26.40;6.65;;;;;;;13.01;79.38;100554.53;5071848;28;20104;-48
2022/11/03 09:53:34;;;;;;;35.00;5.70;;;;;;;12.98;79.48;100544.13;5072863;28;20024;-47
2022/11/03 09:56:00;;;;;;;31.48;5.90;;;;;;;12.95;79.54;100541.50;5072432;28;20074;-49
2022/11/03 09:58:25;;;;;;;27.80;6.55;;;;;;;12.92;79.28;100530.22;5071917;28;20114;-48
2022/11/03 10:00:50;;;;;;;29.65;5.78;;;;;;;12.90;79.84;100534.50;5072459;28;20031;-46
2022/11/03 10:03:17;;;;;;;27.98;5.78;;;;;;;12.88;79.66;100529.31;5072546;28;20388;-47
2022/11/03 10:05:44;;;;;;;27.38;6.15;;;;;;;12.87;79.01;100521.53;5071908;28;20024;-49
2022/11/03 10:08:23;;;;;;;32.38;6.03;;;;;;;12.87;79.10;100521.53;5072313;28;20107;-48
2022/11/03 10:10:53;;;;;;;23.50;5.22;;;;;;;12.86;78.78;100525.84;5071989;28;20040;-48
2022/11/03 10:13:40;;;;;;;31.60;6.28;;;;;;;12.87;78.97;100516.34;5072726;28;20239;-48
2022/11/03 10:16:11;;;;;;;27.83;5.70;;;;;;;12.83;78.87;100516.31;5072361;28;20074;-47
2022/11/03 10:18:36;;;;;;;30.05;5.80;;;;;;;12.82;78.91;100508.50;5071716;28;20024;-48
2022/11/03 10:21:11;;;;;;;28.65;5.85;;;;;;;12.80;78.84;100505.91;5072155;28;20537;-47
2022/11/03 10:23:37;;;;;;;30.73;6.22;;;;;;;12.80;78.57;100492.97;5072368;28;20158;-49
2022/11/03 10:26:17;;;;;;;27.73;6.47;;;;;;;12.80;78.72;100495.56;5071418;28;20025;-49
2022/11/03 10:29:08;;;;;;;26.35;6.82;;;;;;;12.82;78.81;100493.00;5072532;28;20057;-48
2022/11/03 10:31:38;;;;;;;24.95;5.82;;;;;;;12.79;78.75;100491.22;5072371;28;20023;-48
2022/11/03 10:34:22;;;;;;;31.05;6.72;;;;;;;12.82;78.43;100477.47;5071368;28;20021;-47
2022/11/03 10:36:47;;;;;;;28.60;6.05;;;;;;;12.87;78.46;100473.25;5072315;28;20407;-48
2022/11/03 10:39:24;;;;;;;26.20;6.45;;;;;;;12.94;78.75;100476.81;5071031;28;20495;-47
2022/11/03 10:41:59;;;;;;;23.40;5.43;;;;;;;12.99;77.96;100470.84;5072243;28;20042;-48
2022/11/03 10:44:27;;;;;;;34.20;5.78;;;;;;;13.05;77.10;100464.88;5072321;28;20070;-47
2022/11/03 10:47:05;;;;;;;31.80;5.85;;;;;;;13.13;76.81;100463.28;5070879;28;20447;-48
2022/11/03 10:49:34;;;;;;;24.65;5.57;;;;;;;13.28;76.89;100451.38;5072369;28;20024;-48
2022/11/03 10:52:15;;;;;;;26.58;5.80;;;;;;;13.39;76.60;100454.09;5074110;28;20029;-48
2022/11/03 10:54:40;;;;;;;21.50;5.53;;;;;;;13.50;75.46;100450.81;5075106;28;20039;-48
2022/11/03 10:57:06;;;;;;;30.10;5.70;;;;;;;13.57;74.83;100448.25;5075398;28;20028;-47
2022/11/03 10:59:35;;;;;;;28.33;5.80;;;;;;;13.58;75.22;100453.47;5075747;28;20099;-48
2022/11/03 11:02:01;;;;;;;33.60;5.50;;;;;;;13.61;74.09;100445.72;5074836;28;20050;-48
2022/11/03 11:04:26;;;;;;;24.17;5.05;;;;;;;13.62;73.00;100431.06;5075898;28;20100;-47
2022/11/03 11:06:52;;;;;;;26.83;5.20;;;;;;;13.62;73.41;100431.94;5075241;28;20361;-46
2022/11/03 11:09:26;;;;;;;24.13;5.40;;;;;;;13.75;73.56;100425.16;5075559;28;20025;-48
2022/11/03 11:12:00;;;;;;;27.40;5.53;;;;;;;13.90;72.55;100426.16;5075752;28;20078;-49
2022/11/03 11:14:26;;;;;;;23.58;5.60;;;;;;;13.95;71.47;100421.88;5074998;28;20024;-48
2022/11/03 11:16:54;;;;;;;23.58;5.05;;;;;;;13.98;71.34;100427.09;5075577;28;20032;-45
2022/11/03 11:19:24;;;;;;;24.95;5.28;;;;;;;13.94;71.22;100422.72;5075427;28;20047;-45
2022/11/03 11:21:52;;;;;;;28.27;5.90;;;;;;;13.95;71.74;100416.69;5074640;28;20025;-48
2022/11/03 11:24:42;;;;;;;17.77;5.00;;;;;;;13.98;71.77;100408.94;5075507;28;20033;-49
2022/11/03 11:27:32;;;;;;;23.50;5.78;;;;;;;14.00;71.24;100399.47;5074881;28;20387;-49
2022/11/03 11:30:03;;;;;;;22.00;4.80;;;;;;;13.95;69.99;100393.38;5074462;28;20082;-48
2022/11/03 11:32:38;;;;;;;28.50;5.32;;;;;;;13.95;70.48;100385.63;5075400;28;20103;-48
2022/11/03 11:35:06;;;;;;;22.45;4.65;;;;;;;13.98;70.94;100383.03;5074044;28;20415;-49
2022/11/03 11:37:33;;;;;;;19.23;5.10;;;;;;;14.01;70.50;100364.94;5075233;28;20036;-48
2022/11/03 11:39:59;;;;;;;31.75;5.72;;;;;;;14.04;70.64;100357.19;5074778;28;20201;-46
2022/11/03 11:42:25;;;;;;;24.75;6.35;;;;;;;14.12;69.83;100360.69;5074235;28;20031;-49
2022/11/03 11:44:56;;;;;;;22.33;6.13;;;;;;;14.21;69.61;100343.47;5074935;28;20357;-48
2022/11/03 11:47:27;;;;;;;20.83;5.35;;;;;;;14.18;68.61;100340.84;5075123;28;20112;-49